sensor_id;sensor_type;location;lat;lon;timestamp;P1;durP1;ratioP1;P2;durP2;ratioP2
55220;SDS011;41089;51.448;6.604;2022-11-20T00:03:31;20.67;;;15.50;;
55220;SDS011;41089;51.448;6.604;2022-11-20T00:09:31;25.33;;;16.77;;
55220;SDS011;41089;51.448;6.604;2022-11-20T00:15:32;27.03;;;17.83;;
55220;SDS011;41089;51.448;6.604;2022-11-20T00:21:32;27.00;;;17.33;;
55220;SDS011;41089;51.448;6.604;2022-11-20T00:27:32;27.87;;;16.67;;
55220;SDS011;41089;51.448;6.604;2022-11-20T00:33:34;23.33;;;15.65;;
55220;SDS011;41089;51.448;6.604;2022-11-20T00:39:35;25.80;;;17.63;;
55220;SDS011;41089;51.448;6.604;2022-11-20T00:45:35;23.67;;;16.33;;
55220;SDS011;41089;51.448;6.604;2022-11-20T00:51:35;24.73;;;16.60;;
55220;SDS011;41089;51.448;6.604;2022-11-20T00:57:36;23.07;;;15.60;;
55220;SDS011;41089;51.448;6.604;2022-11-20T01:03:40;23.60;;;15.87;;
55220;SDS011;41089;51.448;6.604;2022-11-20T01:09:42;21.45;;;14.07;;
55220;SDS011;41089;51.448;6.604;2022-11-20T01:15:43;21.70;;;16.38;;
55220;SDS011;41089;51.448;6.604;2022-11-20T01:21:45;24.27;;;17.40;;
55220;SDS011;41089;51.448;6.604;2022-11-20T01:27:46;23.95;;;16.20;;
55220;SDS011;41089;51.448;6.604;2022-11-20T01:33:47;23.23;;;15.80;;
55220;SDS011;41089;51.448;6.604;2022-11-20T01:39:50;23.15;;;15.88;;
55220;SDS011;41089;51.448;6.604;2022-11-20T01:46:01;21.88;;;16.48;;
55220;SDS011;41089;51.448;6.604;2022-11-20T01:58:58;25.20;;;16.35;;
55220;SDS011;41089;51.448;6.604;2022-11-20T02:05:02;26.20;;;16.33;;
55220;SDS011;41089;51.448;6.604;2022-11-20T02:11:16;28.25;;;17.55;;
55220;SDS011;41089;51.448;6.604;2022-11-20T02:17:17;24.25;;;17.48;;
55220;SDS011;41089;51.448;6.604;2022-11-20T02:29:34;23.00;;;17.00;;
55220;SDS011;41089;51.448;6.604;2022-11-20T02:35:44;23.63;;;16.95;;
55220;SDS011;41089;51.448;6.604;2022-11-20T02:41:45;23.15;;;17.48;;
55220;SDS011;41089;51.448;6.604;2022-11-20T02:47:46;31.37;;;19.13;;
55220;SDS011;41089;51.448;6.604;2022-11-20T02:53:46;28.93;;;20.40;;
55220;SDS011;41089;51.448;6.604;2022-11-20T02:59:46;25.67;;;19.90;;
55220;SDS011;41089;51.448;6.604;2022-11-20T03:05:47;25.17;;;19.60;;
55220;SDS011;41089;51.448;6.604;2022-11-20T03:11:47;24.25;;;18.23;;
55220;SDS011;41089;51.448;6.604;2022-11-20T03:17:48;26.97;;;19.80;;
55220;SDS011;41089;51.448;6.604;2022-11-20T03:23:48;27.77;;;20.30;;
55220;SDS011;41089;51.448;6.604;2022-11-20T03:29:49;32.65;;;21.85;;
55220;SDS011;41089;51.448;6.604;2022-11-20T03:35:49;30.43;;;22.07;;
55220;SDS011;41089;51.448;6.604;2022-11-20T03:41:49;27.50;;;21.33;;
55220;SDS011;41089;51.448;6.604;2022-11-20T03:47:50;30.60;;;22.93;;
55220;SDS011;41089;51.448;6.604;2022-11-20T03:53:52;31.60;;;20.88;;
55220;SDS011;41089;51.448;6.604;2022-11-20T03:59:53;23.90;;;19.50;;
55220;SDS011;41089;51.448;6.604;2022-11-20T04:05:54;26.37;;;19.20;;
55220;SDS011;41089;51.448;6.604;2022-11-20T04:11:54;31.73;;;23.48;;
55220;SDS011;41089;51.448;6.604;2022-11-20T04:17:55;25.50;;;19.10;;
55220;SDS011;41089;51.448;6.604;2022-11-20T04:23:56;24.38;;;17.70;;
55220;SDS011;41089;51.448;6.604;2022-11-20T04:29:56;24.88;;;17.95;;
55220;SDS011;41089;51.448;6.604;2022-11-20T04:36:00;27.05;;;18.73;;
55220;SDS011;41089;51.448;6.604;2022-11-20T04:42:04;20.05;;;17.15;;
55220;SDS011;41089;51.448;6.604;2022-11-20T04:48:24;21.80;;;17.45;;
55220;SDS011;41089;51.448;6.604;2022-11-20T04:54:25;27.60;;;18.80;;
55220;SDS011;41089;51.448;6.604;2022-11-20T05:00:25;28.93;;;19.30;;
55220;SDS011;41089;51.448;6.604;2022-11-20T05:06:26;25.70;;;17.40;;
55220;SDS011;41089;51.448;6.604;2022-11-20T05:12:26;24.33;;;18.43;;
55220;SDS011;41089;51.448;6.604;2022-11-20T05:18:27;25.27;;;18.55;;
55220;SDS011;41089;51.448;6.604;2022-11-20T05:24:27;24.03;;;17.77;;
55220;SDS011;41089;51.448;6.604;2022-11-20T05:30:28;29.57;;;22.47;;
55220;SDS011;41089;51.448;6.604;2022-11-20T05:36:28;25.35;;;19.30;;
55220;SDS011;41089;51.448;6.604;2022-11-20T05:42:30;26.15;;;19.30;;
55220;SDS011;41089;51.448;6.604;2022-11-20T05:48:32;31.50;;;22.67;;
55220;SDS011;41089;51.448;6.604;2022-11-20T05:54:34;30.65;;;20.98;;
55220;SDS011;41089;51.448;6.604;2022-11-20T06:00:34;30.58;;;21.73;;
55220;SDS011;41089;51.448;6.604;2022-11-20T06:06:35;31.63;;;21.60;;
55220;SDS011;41089;51.448;6.604;2022-11-20T06:12:35;26.87;;;21.40;;
55220;SDS011;41089;51.448;6.604;2022-11-20T06:18:36;27.38;;;19.98;;
55220;SDS011;41089;51.448;6.604;2022-11-20T06:24:36;32.73;;;21.73;;
55220;SDS011;41089;51.448;6.604;2022-11-20T06:30:37;32.53;;;22.27;;
55220;SDS011;41089;51.448;6.604;2022-11-20T06:36:44;32.30;;;23.00;;
55220;SDS011;41089;51.448;6.604;2022-11-20T06:42:45;29.85;;;21.23;;
55220;SDS011;41089;51.448;6.604;2022-11-20T06:48:47;27.00;;;20.58;;
55220;SDS011;41089;51.448;6.604;2022-11-20T06:54:48;28.38;;;20.67;;
55220;SDS011;41089;51.448;6.604;2022-11-20T07:00:48;33.70;;;20.55;;
55220;SDS011;41089;51.448;6.604;2022-11-20T07:06:49;29.23;;;20.80;;
55220;SDS011;41089;51.448;6.604;2022-11-20T07:12:53;31.13;;;22.40;;
55220;SDS011;41089;51.448;6.604;2022-11-20T07:18:53;33.90;;;23.10;;
55220;SDS011;41089;51.448;6.604;2022-11-20T07:24:55;32.47;;;21.35;;
55220;SDS011;41089;51.448;6.604;2022-11-20T07:30:55;37.95;;;23.95;;
55220;SDS011;41089;51.448;6.604;2022-11-20T07:36:55;27.50;;;21.50;;
55220;SDS011;41089;51.448;6.604;2022-11-20T07:42:56;30.15;;;20.20;;
55220;SDS011;41089;51.448;6.604;2022-11-20T07:48:56;29.13;;;19.73;;
55220;SDS011;41089;51.448;6.604;2022-11-20T07:54:57;48.63;;;31.30;;
55220;SDS011;41089;51.448;6.604;2022-11-20T08:01:08;30.70;;;24.07;;
55220;SDS011;41089;51.448;6.604;2022-11-20T08:07:08;32.63;;;24.80;;
55220;SDS011;41089;51.448;6.604;2022-11-20T08:13:09;49.93;;;38.17;;
55220;SDS011;41089;51.448;6.604;2022-11-20T08:19:27;31.60;;;21.42;;
55220;SDS011;41089;51.448;6.604;2022-11-20T08:25:28;29.27;;;21.53;;
55220;SDS011;41089;51.448;6.604;2022-11-20T08:31:29;29.17;;;22.48;;
55220;SDS011;41089;51.448;6.604;2022-11-20T08:37:30;28.50;;;19.50;;
55220;SDS011;41089;51.448;6.604;2022-11-20T08:43:30;24.88;;;18.92;;
55220;SDS011;41089;51.448;6.604;2022-11-20T08:49:32;27.65;;;19.63;;
55220;SDS011;41089;51.448;6.604;2022-11-20T08:55:32;30.67;;;22.42;;
55220;SDS011;41089;51.448;6.604;2022-11-20T09:01:32;27.17;;;20.50;;
55220;SDS011;41089;51.448;6.604;2022-11-20T09:07:33;43.13;;;32.90;;
55220;SDS011;41089;51.448;6.604;2022-11-20T09:13:34;25.25;;;18.98;;
55220;SDS011;41089;51.448;6.604;2022-11-20T09:19:36;28.70;;;22.05;;
55220;SDS011;41089;51.448;6.604;2022-11-20T09:25:37;31.27;;;22.55;;
55220;SDS011;41089;51.448;6.604;2022-11-20T09:31:38;27.35;;;21.48;;
55220;SDS011;41089;51.448;6.604;2022-11-20T09:37:38;28.23;;;20.23;;
55220;SDS011;41089;51.448;6.604;2022-11-20T09:50:36;24.58;;;19.45;;
55220;SDS011;41089;51.448;6.604;2022-11-20T09:57:05;25.13;;;18.92;;
55220;SDS011;41089;51.448;6.604;2022-11-20T10:03:14;26.57;;;19.97;;
55220;SDS011;41089;51.448;6.604;2022-11-20T10:09:20;24.73;;;19.08;;
55220;SDS011;41089;51.448;6.604;2022-11-20T10:15:39;24.75;;;19.92;;
55220;SDS011;41089;51.448;6.604;2022-11-20T10:21:50;26.13;;;20.30;;
55220;SDS011;41089;51.448;6.604;2022-11-20T10:46:52;31.88;;;23.65;;
55220;SDS011;41089;51.448;6.604;2022-11-20T11:06:08;30.55;;;23.13;;
55220;SDS011;41089;51.448;6.604;2022-11-20T11:12:29;32.67;;;23.13;;
55220;SDS011;41089;51.448;6.604;2022-11-20T11:18:31;35.63;;;23.73;;
55220;SDS011;41089;51.448;6.604;2022-11-20T11:24:33;29.95;;;21.48;;
55220;SDS011;41089;51.448;6.604;2022-11-20T11:30:43;35.13;;;22.92;;
55220;SDS011;41089;51.448;6.604;2022-11-20T11:36:49;43.60;;;30.05;;
55220;SDS011;41089;51.448;6.604;2022-11-20T11:42:56;35.50;;;22.27;;
55220;SDS011;41089;51.448;6.604;2022-11-20T11:55:09;48.08;;;30.88;;
55220;SDS011;41089;51.448;6.604;2022-11-20T12:07:43;33.63;;;23.15;;
55220;SDS011;41089;51.448;6.604;2022-11-20T12:14:24;41.00;;;25.88;;
55220;SDS011;41089;51.448;6.604;2022-11-20T12:20:33;32.50;;;22.23;;
55220;SDS011;41089;51.448;6.604;2022-11-20T12:52:35;29.15;;;20.88;;
55220;SDS011;41089;51.448;6.604;2022-11-20T13:11:07;26.40;;;19.83;;
55220;SDS011;41089;51.448;6.604;2022-11-20T13:23:34;35.13;;;25.67;;
55220;SDS011;41089;51.448;6.604;2022-11-20T13:29:35;38.63;;;27.60;;
55220;SDS011;41089;51.448;6.604;2022-11-20T13:35:40;36.08;;;24.15;;
55220;SDS011;41089;51.448;6.604;2022-11-20T13:41:41;39.45;;;28.95;;
55220;SDS011;41089;51.448;6.604;2022-11-20T13:47:47;31.98;;;22.15;;
55220;SDS011;41089;51.448;6.604;2022-11-20T14:00:14;32.83;;;23.38;;
55220;SDS011;41089;51.448;6.604;2022-11-20T14:12:32;34.80;;;23.02;;
55220;SDS011;41089;51.448;6.604;2022-11-20T14:18:33;36.33;;;24.42;;
55220;SDS011;41089;51.448;6.604;2022-11-20T14:24:33;35.33;;;24.60;;
55220;SDS011;41089;51.448;6.604;2022-11-20T14:30:43;36.80;;;23.10;;
55220;SDS011;41089;51.448;6.604;2022-11-20T14:36:45;36.80;;;23.35;;
55220;SDS011;41089;51.448;6.604;2022-11-20T14:42:45;35.08;;;23.25;;
55220;SDS011;41089;51.448;6.604;2022-11-20T14:48:50;39.43;;;26.90;;
55220;SDS011;41089;51.448;6.604;2022-11-20T14:54:55;42.75;;;26.13;;
55220;SDS011;41089;51.448;6.604;2022-11-20T15:01:06;37.60;;;25.52;;
55220;SDS011;41089;51.448;6.604;2022-11-20T15:07:07;38.25;;;24.88;;
55220;SDS011;41089;51.448;6.604;2022-11-20T15:13:11;37.08;;;24.80;;
55220;SDS011;41089;51.448;6.604;2022-11-20T15:19:17;39.47;;;25.35;;
55220;SDS011;41089;51.448;6.604;2022-11-20T15:25:19;41.67;;;25.05;;
55220;SDS011;41089;51.448;6.604;2022-11-20T15:31:21;49.03;;;28.42;;
55220;SDS011;41089;51.448;6.604;2022-11-20T15:37:23;49.53;;;29.38;;
55220;SDS011;41089;51.448;6.604;2022-11-20T15:43:24;52.20;;;30.88;;
55220;SDS011;41089;51.448;6.604;2022-11-20T15:49:24;50.58;;;30.85;;
55220;SDS011;41089;51.448;6.604;2022-11-20T15:55:25;48.83;;;28.67;;
55220;SDS011;41089;51.448;6.604;2022-11-20T16:01:26;54.20;;;35.13;;
55220;SDS011;41089;51.448;6.604;2022-11-20T16:07:27;51.00;;;30.53;;
55220;SDS011;41089;51.448;6.604;2022-11-20T16:13:27;41.88;;;25.80;;
55220;SDS011;41089;51.448;6.604;2022-11-20T16:19:46;48.13;;;26.95;;
55220;SDS011;41089;51.448;6.604;2022-11-20T16:25:47;79.03;;;46.58;;
55220;SDS011;41089;51.448;6.604;2022-11-20T16:31:48;45.05;;;27.10;;
55220;SDS011;41089;51.448;6.604;2022-11-20T16:37:48;41.88;;;24.88;;
55220;SDS011;41089;51.448;6.604;2022-11-20T16:43:49;47.13;;;27.60;;
55220;SDS011;41089;51.448;6.604;2022-11-20T16:49:54;38.75;;;24.80;;
55220;SDS011;41089;51.448;6.604;2022-11-20T16:55:55;49.17;;;30.10;;
55220;SDS011;41089;51.448;6.604;2022-11-20T17:01:56;38.50;;;23.52;;
55220;SDS011;41089;51.448;6.604;2022-11-20T17:07:56;49.43;;;25.07;;
55220;SDS011;41089;51.448;6.604;2022-11-20T17:13:57;40.67;;;25.47;;
55220;SDS011;41089;51.448;6.604;2022-11-20T17:19:59;46.13;;;23.73;;
55220;SDS011;41089;51.448;6.604;2022-11-20T17:26:07;38.92;;;23.05;;
55220;SDS011;41089;51.448;6.604;2022-11-20T17:32:09;36.17;;;19.88;;
55220;SDS011;41089;51.448;6.604;2022-11-20T17:38:09;31.88;;;18.80;;
55220;SDS011;41089;51.448;6.604;2022-11-20T17:44:10;38.83;;;21.23;;
55220;SDS011;41089;51.448;6.604;2022-11-20T17:50:11;32.22;;;18.85;;
55220;SDS011;41089;51.448;6.604;2022-11-20T17:56:13;30.70;;;17.23;;
55220;SDS011;41089;51.448;6.604;2022-11-20T18:02:32;39.20;;;19.33;;
55220;SDS011;41089;51.448;6.604;2022-11-20T18:08:32;30.47;;;17.27;;
55220;SDS011;41089;51.448;6.604;2022-11-20T18:14:33;32.70;;;19.08;;
55220;SDS011;41089;51.448;6.604;2022-11-20T18:20:36;28.10;;;16.77;;
55220;SDS011;41089;51.448;6.604;2022-11-20T18:26:37;41.63;;;22.75;;
55220;SDS011;41089;51.448;6.604;2022-11-20T18:32:38;27.38;;;15.77;;
55220;SDS011;41089;51.448;6.604;2022-11-20T18:38:42;20.57;;;13.83;;
55220;SDS011;41089;51.448;6.604;2022-11-20T18:44:45;24.48;;;13.70;;
55220;SDS011;41089;51.448;6.604;2022-11-20T18:50:52;27.58;;;13.45;;
55220;SDS011;41089;51.448;6.604;2022-11-20T18:56:53;21.90;;;15.43;;
55220;SDS011;41089;51.448;6.604;2022-11-20T19:02:53;37.30;;;23.33;;
55220;SDS011;41089;51.448;6.604;2022-11-20T19:08:53;70.47;;;40.80;;
55220;SDS011;41089;51.448;6.604;2022-11-20T19:14:54;23.30;;;14.27;;
55220;SDS011;41089;51.448;6.604;2022-11-20T19:20:54;22.23;;;16.00;;
55220;SDS011;41089;51.448;6.604;2022-11-20T19:26:55;18.83;;;13.63;;
55220;SDS011;41089;51.448;6.604;2022-11-20T19:32:55;16.88;;;10.85;;
55220;SDS011;41089;51.448;6.604;2022-11-20T19:38:57;19.23;;;12.98;;
55220;SDS011;41089;51.448;6.604;2022-11-20T19:44:58;18.30;;;11.73;;
55220;SDS011;41089;51.448;6.604;2022-11-20T19:51:07;14.03;;;11.27;;
55220;SDS011;41089;51.448;6.604;2022-11-20T19:57:11;26.25;;;15.65;;
55220;SDS011;41089;51.448;6.604;2022-11-20T20:03:11;20.77;;;14.47;;
55220;SDS011;41089;51.448;6.604;2022-11-20T20:09:11;18.15;;;13.88;;
55220;SDS011;41089;51.448;6.604;2022-11-20T20:15:12;20.70;;;14.95;;
55220;SDS011;41089;51.448;6.604;2022-11-20T20:21:13;21.40;;;17.87;;
55220;SDS011;41089;51.448;6.604;2022-11-20T20:27:17;22.30;;;17.45;;
55220;SDS011;41089;51.448;6.604;2022-11-20T20:33:17;20.02;;;15.75;;
55220;SDS011;41089;51.448;6.604;2022-11-20T20:39:17;19.27;;;15.50;;
55220;SDS011;41089;51.448;6.604;2022-11-20T20:45:18;23.23;;;16.80;;
55220;SDS011;41089;51.448;6.604;2022-11-20T20:51:19;20.40;;;15.63;;
55220;SDS011;41089;51.448;6.604;2022-11-20T20:57:20;21.67;;;15.87;;
55220;SDS011;41089;51.448;6.604;2022-11-20T21:03:21;27.27;;;17.98;;
55220;SDS011;41089;51.448;6.604;2022-11-20T21:09:21;28.43;;;19.60;;
55220;SDS011;41089;51.448;6.604;2022-11-20T21:15:22;27.57;;;20.67;;
55220;SDS011;41089;51.448;6.604;2022-11-20T21:21:22;29.73;;;20.52;;
55220;SDS011;41089;51.448;6.604;2022-11-20T21:27:41;32.65;;;21.67;;
55220;SDS011;41089;51.448;6.604;2022-11-20T21:33:42;39.73;;;22.83;;
55220;SDS011;41089;51.448;6.604;2022-11-20T21:39:44;41.72;;;25.17;;
55220;SDS011;41089;51.448;6.604;2022-11-20T21:45:50;43.90;;;25.98;;
55220;SDS011;41089;51.448;6.604;2022-11-20T21:51:51;47.65;;;26.75;;
55220;SDS011;41089;51.448;6.604;2022-11-20T21:57:52;46.15;;;27.30;;
55220;SDS011;41089;51.448;6.604;2022-11-20T22:03:56;57.37;;;29.77;;
55220;SDS011;41089;51.448;6.604;2022-11-20T22:09:58;45.28;;;25.40;;
55220;SDS011;41089;51.448;6.604;2022-11-20T22:16:00;59.42;;;29.92;;
55220;SDS011;41089;51.448;6.604;2022-11-20T22:22:00;52.65;;;26.13;;
55220;SDS011;41089;51.448;6.604;2022-11-20T22:28:01;48.53;;;25.77;;
55220;SDS011;41089;51.448;6.604;2022-11-20T22:34:01;45.17;;;25.45;;
55220;SDS011;41089;51.448;6.604;2022-11-20T22:40:02;49.80;;;26.10;;
55220;SDS011;41089;51.448;6.604;2022-11-20T22:52:07;50.30;;;24.77;;
55220;SDS011;41089;51.448;6.604;2022-11-20T22:58:07;45.07;;;23.17;;
55220;SDS011;41089;51.448;6.604;2022-11-20T23:04:08;43.05;;;26.20;;
55220;SDS011;41089;51.448;6.604;2022-11-20T23:10:09;40.33;;;24.83;;
55220;SDS011;41089;51.448;6.604;2022-11-20T23:16:11;62.00;;;32.08;;
55220;SDS011;41089;51.448;6.604;2022-11-20T23:22:15;54.35;;;29.17;;
55220;SDS011;41089;51.448;6.604;2022-11-20T23:28:16;60.50;;;30.92;;
55220;SDS011;41089;51.448;6.604;2022-11-20T23:34:16;48.50;;;27.73;;
55220;SDS011;41089;51.448;6.604;2022-11-20T23:40:16;51.75;;;27.30;;
55220;SDS011;41089;51.448;6.604;2022-11-20T23:46:17;58.45;;;28.98;;
55220;SDS011;41089;51.448;6.604;2022-11-20T23:52:18;41.70;;;26.08;;
55220;SDS011;41089;51.448;6.604;2022-11-20T23:58:19;35.50;;;23.73;;
